sensor_id;sensor_type;location;lat;lon;timestamp;P1;durP1;ratioP1;P2;durP2;ratioP2
31676;SDS011;18385;51.572;6.578;2022-08-03T00:01:40;1.95;;;0.63;;
31676;SDS011;18385;51.572;6.578;2022-08-03T00:04:08;4.05;;;0.90;;
31676;SDS011;18385;51.572;6.578;2022-08-03T00:06:34;1.90;;;0.77;;
31676;SDS011;18385;51.572;6.578;2022-08-03T00:09:00;1.80;;;0.82;;
31676;SDS011;18385;51.572;6.578;2022-08-03T00:11:26;3.38;;;1.10;;
31676;SDS011;18385;51.572;6.578;2022-08-03T00:13:52;4.65;;;1.00;;
31676;SDS011;18385;51.572;6.578;2022-08-03T00:16:17;4.68;;;1.00;;
31676;SDS011;18385;51.572;6.578;2022-08-03T00:18:43;3.17;;;1.17;;
31676;SDS011;18385;51.572;6.578;2022-08-03T00:21:09;1.65;;;0.60;;
31676;SDS011;18385;51.572;6.578;2022-08-03T00:23:35;1.88;;;0.60;;
31676;SDS011;18385;51.572;6.578;2022-08-03T00:26:01;2.58;;;0.85;;
31676;SDS011;18385;51.572;6.578;2022-08-03T00:28:27;2.75;;;1.10;;
31676;SDS011;18385;51.572;6.578;2022-08-03T00:30:53;3.15;;;0.93;;
31676;SDS011;18385;51.572;6.578;2022-08-03T00:33:20;2.03;;;0.90;;
31676;SDS011;18385;51.572;6.578;2022-08-03T00:35:46;2.17;;;1.00;;
31676;SDS011;18385;51.572;6.578;2022-08-03T00:38:11;3.13;;;0.90;;
31676;SDS011;18385;51.572;6.578;2022-08-03T00:40:37;1.55;;;0.80;;
31676;SDS011;18385;51.572;6.578;2022-08-03T00:43:03;2.00;;;1.00;;
31676;SDS011;18385;51.572;6.578;2022-08-03T00:45:32;1.33;;;0.70;;
31676;SDS011;18385;51.572;6.578;2022-08-03T00:47:59;2.75;;;1.50;;
31676;SDS011;18385;51.572;6.578;2022-08-03T00:50:27;3.08;;;0.98;;
31676;SDS011;18385;51.572;6.578;2022-08-03T00:52:55;6.80;;;0.95;;
31676;SDS011;18385;51.572;6.578;2022-08-03T00:55:23;4.65;;;0.80;;
31676;SDS011;18385;51.572;6.578;2022-08-03T00:57:49;3.45;;;1.30;;
31676;SDS011;18385;51.572;6.578;2022-08-03T01:00:19;1.92;;;0.88;;
31676;SDS011;18385;51.572;6.578;2022-08-03T01:02:46;3.15;;;0.82;;
31676;SDS011;18385;51.572;6.578;2022-08-03T01:05:12;2.13;;;0.60;;
31676;SDS011;18385;51.572;6.578;2022-08-03T01:07:45;7.95;;;0.95;;
31676;SDS011;18385;51.572;6.578;2022-08-03T01:10:31;6.18;;;1.00;;
31676;SDS011;18385;51.572;6.578;2022-08-03T01:16:00;2.90;;;1.23;;
31676;SDS011;18385;51.572;6.578;2022-08-03T01:21:18;3.40;;;0.82;;
31676;SDS011;18385;51.572;6.578;2022-08-03T01:24:00;2.70;;;0.93;;
31676;SDS011;18385;51.572;6.578;2022-08-03T01:31:38;2.55;;;1.30;;
31676;SDS011;18385;51.572;6.578;2022-08-03T01:34:08;2.97;;;1.45;;
31676;SDS011;18385;51.572;6.578;2022-08-03T01:36:47;2.80;;;0.98;;
31676;SDS011;18385;51.572;6.578;2022-08-03T01:39:17;3.35;;;1.05;;
31676;SDS011;18385;51.572;6.578;2022-08-03T01:41:49;1.67;;;0.85;;
31676;SDS011;18385;51.572;6.578;2022-08-03T01:44:18;4.55;;;1.45;;
31676;SDS011;18385;51.572;6.578;2022-08-03T01:46:46;6.82;;;1.42;;
31676;SDS011;18385;51.572;6.578;2022-08-03T01:49:15;6.60;;;1.65;;
31676;SDS011;18385;51.572;6.578;2022-08-03T01:51:43;2.63;;;0.95;;
31676;SDS011;18385;51.572;6.578;2022-08-03T01:54:11;2.05;;;1.20;;
31676;SDS011;18385;51.572;6.578;2022-08-03T01:56:38;2.05;;;1.05;;
31676;SDS011;18385;51.572;6.578;2022-08-03T01:59:05;3.53;;;1.08;;
31676;SDS011;18385;51.572;6.578;2022-08-03T02:01:32;6.93;;;1.08;;
31676;SDS011;18385;51.572;6.578;2022-08-03T02:04:00;2.90;;;1.02;;
31676;SDS011;18385;51.572;6.578;2022-08-03T02:06:28;4.32;;;1.30;;
31676;SDS011;18385;51.572;6.578;2022-08-03T02:08:56;2.67;;;1.35;;
31676;SDS011;18385;51.572;6.578;2022-08-03T02:11:24;4.10;;;1.65;;
31676;SDS011;18385;51.572;6.578;2022-08-03T02:13:51;3.30;;;1.35;;
31676;SDS011;18385;51.572;6.578;2022-08-03T02:16:18;4.30;;;1.63;;
31676;SDS011;18385;51.572;6.578;2022-08-03T02:18:46;1.42;;;0.95;;
31676;SDS011;18385;51.572;6.578;2022-08-03T02:21:13;4.68;;;1.38;;
31676;SDS011;18385;51.572;6.578;2022-08-03T02:23:40;3.60;;;1.30;;
31676;SDS011;18385;51.572;6.578;2022-08-03T02:26:07;3.25;;;1.10;;
31676;SDS011;18385;51.572;6.578;2022-08-03T02:28:37;2.17;;;0.95;;
31676;SDS011;18385;51.572;6.578;2022-08-03T02:31:10;3.33;;;1.40;;
31676;SDS011;18385;51.572;6.578;2022-08-03T02:33:51;5.90;;;1.45;;
31676;SDS011;18385;51.572;6.578;2022-08-03T02:38:48;3.50;;;1.20;;
31676;SDS011;18385;51.572;6.578;2022-08-03T02:41:19;4.18;;;1.10;;
31676;SDS011;18385;51.572;6.578;2022-08-03T02:43:49;4.35;;;1.25;;
31676;SDS011;18385;51.572;6.578;2022-08-03T02:46:19;2.88;;;1.15;;
31676;SDS011;18385;51.572;6.578;2022-08-03T02:48:48;2.42;;;1.08;;
31676;SDS011;18385;51.572;6.578;2022-08-03T02:51:17;4.72;;;1.65;;
31676;SDS011;18385;51.572;6.578;2022-08-03T02:53:45;4.50;;;1.92;;
31676;SDS011;18385;51.572;6.578;2022-08-03T02:56:12;4.55;;;1.20;;
31676;SDS011;18385;51.572;6.578;2022-08-03T02:58:39;2.58;;;1.30;;
31676;SDS011;18385;51.572;6.578;2022-08-03T03:01:08;4.75;;;1.27;;
31676;SDS011;18385;51.572;6.578;2022-08-03T03:03:35;3.53;;;0.93;;
31676;SDS011;18385;51.572;6.578;2022-08-03T03:06:02;7.30;;;1.52;;
31676;SDS011;18385;51.572;6.578;2022-08-03T03:08:29;2.22;;;1.10;;
31676;SDS011;18385;51.572;6.578;2022-08-03T03:10:56;4.63;;;1.10;;
31676;SDS011;18385;51.572;6.578;2022-08-03T03:13:23;4.35;;;1.27;;
31676;SDS011;18385;51.572;6.578;2022-08-03T03:15:51;5.43;;;1.05;;
31676;SDS011;18385;51.572;6.578;2022-08-03T03:18:18;4.32;;;1.13;;
31676;SDS011;18385;51.572;6.578;2022-08-03T03:20:45;2.20;;;1.10;;
31676;SDS011;18385;51.572;6.578;2022-08-03T03:23:12;3.78;;;1.27;;
31676;SDS011;18385;51.572;6.578;2022-08-03T03:25:39;2.63;;;1.20;;
31676;SDS011;18385;51.572;6.578;2022-08-03T03:28:06;6.40;;;1.80;;
31676;SDS011;18385;51.572;6.578;2022-08-03T03:30:32;3.78;;;1.52;;
31676;SDS011;18385;51.572;6.578;2022-08-03T03:32:58;2.30;;;1.15;;
31676;SDS011;18385;51.572;6.578;2022-08-03T03:35:24;3.88;;;1.38;;
31676;SDS011;18385;51.572;6.578;2022-08-03T03:37:51;4.10;;;1.30;;
31676;SDS011;18385;51.572;6.578;2022-08-03T03:40:17;4.28;;;1.48;;
31676;SDS011;18385;51.572;6.578;2022-08-03T03:42:43;4.38;;;1.33;;
31676;SDS011;18385;51.572;6.578;2022-08-03T03:45:09;4.03;;;1.45;;
31676;SDS011;18385;51.572;6.578;2022-08-03T03:47:35;6.32;;;1.55;;
31676;SDS011;18385;51.572;6.578;2022-08-03T03:50:02;4.47;;;1.80;;
31676;SDS011;18385;51.572;6.578;2022-08-03T03:52:30;2.85;;;1.48;;
31676;SDS011;18385;51.572;6.578;2022-08-03T03:54:56;2.50;;;1.30;;
31676;SDS011;18385;51.572;6.578;2022-08-03T03:57:22;2.72;;;1.33;;
31676;SDS011;18385;51.572;6.578;2022-08-03T03:59:49;3.00;;;1.33;;
31676;SDS011;18385;51.572;6.578;2022-08-03T04:02:14;4.18;;;1.30;;
31676;SDS011;18385;51.572;6.578;2022-08-03T04:04:40;3.40;;;1.60;;
31676;SDS011;18385;51.572;6.578;2022-08-03T04:07:25;4.00;;;1.40;;
31676;SDS011;18385;51.572;6.578;2022-08-03T04:10:17;3.92;;;1.48;;
31676;SDS011;18385;51.572;6.578;2022-08-03T04:13:08;5.63;;;1.60;;
31676;SDS011;18385;51.572;6.578;2022-08-03T04:15:36;4.28;;;1.48;;
31676;SDS011;18385;51.572;6.578;2022-08-03T04:18:03;4.55;;;1.65;;
31676;SDS011;18385;51.572;6.578;2022-08-03T04:20:34;4.38;;;1.83;;
31676;SDS011;18385;51.572;6.578;2022-08-03T04:23:01;3.88;;;1.58;;
31676;SDS011;18385;51.572;6.578;2022-08-03T04:25:29;5.40;;;1.58;;
31676;SDS011;18385;51.572;6.578;2022-08-03T04:28:02;4.30;;;1.15;;
31676;SDS011;18385;51.572;6.578;2022-08-03T04:30:29;4.25;;;1.65;;
31676;SDS011;18385;51.572;6.578;2022-08-03T04:32:57;6.97;;;1.80;;
31676;SDS011;18385;51.572;6.578;2022-08-03T04:35:26;5.35;;;1.58;;
31676;SDS011;18385;51.572;6.578;2022-08-03T04:37:55;4.20;;;1.88;;
31676;SDS011;18385;51.572;6.578;2022-08-03T04:40:34;6.55;;;2.00;;
31676;SDS011;18385;51.572;6.578;2022-08-03T04:43:03;4.40;;;1.80;;
31676;SDS011;18385;51.572;6.578;2022-08-03T04:45:31;5.47;;;1.85;;
31676;SDS011;18385;51.572;6.578;2022-08-03T04:47:59;6.05;;;2.17;;
31676;SDS011;18385;51.572;6.578;2022-08-03T04:50:25;8.57;;;2.35;;
31676;SDS011;18385;51.572;6.578;2022-08-03T04:53:07;3.63;;;2.10;;
31676;SDS011;18385;51.572;6.578;2022-08-03T04:55:33;6.13;;;1.73;;
31676;SDS011;18385;51.572;6.578;2022-08-03T04:58:00;4.50;;;1.55;;
31676;SDS011;18385;51.572;6.578;2022-08-03T05:00:27;3.80;;;1.48;;
31676;SDS011;18385;51.572;6.578;2022-08-03T05:02:53;9.60;;;1.70;;
31676;SDS011;18385;51.572;6.578;2022-08-03T05:05:21;3.13;;;1.55;;
31676;SDS011;18385;51.572;6.578;2022-08-03T05:07:46;11.50;;;1.95;;
31676;SDS011;18385;51.572;6.578;2022-08-03T05:10:12;4.57;;;1.95;;
31676;SDS011;18385;51.572;6.578;2022-08-03T05:12:38;4.72;;;1.75;;
31676;SDS011;18385;51.572;6.578;2022-08-03T05:15:05;5.53;;;1.67;;
31676;SDS011;18385;51.572;6.578;2022-08-03T05:17:31;3.67;;;2.05;;
31676;SDS011;18385;51.572;6.578;2022-08-03T05:20:01;5.90;;;1.75;;
31676;SDS011;18385;51.572;6.578;2022-08-03T05:22:28;3.95;;;1.63;;
31676;SDS011;18385;51.572;6.578;2022-08-03T05:24:54;9.73;;;2.25;;
31676;SDS011;18385;51.572;6.578;2022-08-03T05:27:19;8.82;;;2.10;;
31676;SDS011;18385;51.572;6.578;2022-08-03T05:29:45;3.60;;;1.90;;
31676;SDS011;18385;51.572;6.578;2022-08-03T05:34:43;4.45;;;1.25;;
31676;SDS011;18385;51.572;6.578;2022-08-03T05:37:09;6.28;;;1.75;;
31676;SDS011;18385;51.572;6.578;2022-08-03T05:39:35;8.38;;;2.25;;
31676;SDS011;18385;51.572;6.578;2022-08-03T05:42:02;10.18;;;2.60;;
31676;SDS011;18385;51.572;6.578;2022-08-03T05:44:28;3.95;;;1.52;;
31676;SDS011;18385;51.572;6.578;2022-08-03T05:46:55;12.23;;;1.92;;
31676;SDS011;18385;51.572;6.578;2022-08-03T05:49:20;7.60;;;2.00;;
31676;SDS011;18385;51.572;6.578;2022-08-03T05:51:46;5.60;;;2.00;;
31676;SDS011;18385;51.572;6.578;2022-08-03T05:54:12;9.68;;;2.67;;
31676;SDS011;18385;51.572;6.578;2022-08-03T05:56:38;5.80;;;1.95;;
31676;SDS011;18385;51.572;6.578;2022-08-03T05:59:06;4.65;;;2.35;;
31676;SDS011;18385;51.572;6.578;2022-08-03T06:01:32;6.78;;;1.65;;
31676;SDS011;18385;51.572;6.578;2022-08-03T06:03:58;4.88;;;1.58;;
31676;SDS011;18385;51.572;6.578;2022-08-03T06:06:24;5.70;;;1.60;;
31676;SDS011;18385;51.572;6.578;2022-08-03T06:08:49;5.57;;;2.03;;
31676;SDS011;18385;51.572;6.578;2022-08-03T06:11:15;6.70;;;1.60;;
31676;SDS011;18385;51.572;6.578;2022-08-03T06:13:42;5.57;;;1.50;;
31676;SDS011;18385;51.572;6.578;2022-08-03T06:16:08;5.07;;;1.73;;
31676;SDS011;18385;51.572;6.578;2022-08-03T06:18:34;6.03;;;1.65;;
31676;SDS011;18385;51.572;6.578;2022-08-03T06:21:00;9.70;;;1.70;;
31676;SDS011;18385;51.572;6.578;2022-08-03T06:23:26;7.35;;;1.65;;
31676;SDS011;18385;51.572;6.578;2022-08-03T06:25:52;8.32;;;1.85;;
31676;SDS011;18385;51.572;6.578;2022-08-03T06:28:18;9.30;;;1.98;;
31676;SDS011;18385;51.572;6.578;2022-08-03T06:30:44;5.13;;;1.55;;
31676;SDS011;18385;51.572;6.578;2022-08-03T06:33:09;3.50;;;1.40;;
31676;SDS011;18385;51.572;6.578;2022-08-03T06:35:35;3.83;;;1.98;;
31676;SDS011;18385;51.572;6.578;2022-08-03T06:38:01;5.65;;;1.38;;
31676;SDS011;18385;51.572;6.578;2022-08-03T06:40:27;5.82;;;1.50;;
31676;SDS011;18385;51.572;6.578;2022-08-03T06:42:58;2.78;;;1.40;;
31676;SDS011;18385;51.572;6.578;2022-08-03T06:45:26;4.55;;;1.45;;
31676;SDS011;18385;51.572;6.578;2022-08-03T06:48:09;5.47;;;1.30;;
31676;SDS011;18385;51.572;6.578;2022-08-03T06:50:36;8.35;;;1.85;;
31676;SDS011;18385;51.572;6.578;2022-08-03T06:53:03;4.57;;;1.52;;
31676;SDS011;18385;51.572;6.578;2022-08-03T06:55:29;4.68;;;1.42;;
31676;SDS011;18385;51.572;6.578;2022-08-03T06:57:56;3.38;;;0.90;;
31676;SDS011;18385;51.572;6.578;2022-08-03T07:00:22;9.77;;;2.03;;
31676;SDS011;18385;51.572;6.578;2022-08-03T07:02:48;2.95;;;1.30;;
31676;SDS011;18385;51.572;6.578;2022-08-03T07:05:14;3.88;;;1.30;;
31676;SDS011;18385;51.572;6.578;2022-08-03T07:07:41;7.38;;;1.20;;
31676;SDS011;18385;51.572;6.578;2022-08-03T07:10:07;3.47;;;1.30;;
31676;SDS011;18385;51.572;6.578;2022-08-03T07:12:33;5.25;;;1.05;;
31676;SDS011;18385;51.572;6.578;2022-08-03T07:15:00;7.50;;;1.50;;
31676;SDS011;18385;51.572;6.578;2022-08-03T07:17:27;2.83;;;1.23;;
31676;SDS011;18385;51.572;6.578;2022-08-03T07:19:53;3.42;;;0.98;;
31676;SDS011;18385;51.572;6.578;2022-08-03T07:22:19;3.38;;;0.90;;
31676;SDS011;18385;51.572;6.578;2022-08-03T07:24:45;4.25;;;1.10;;
31676;SDS011;18385;51.572;6.578;2022-08-03T07:27:11;4.43;;;1.13;;
31676;SDS011;18385;51.572;6.578;2022-08-03T07:29:37;6.57;;;1.10;;
31676;SDS011;18385;51.572;6.578;2022-08-03T07:32:03;2.90;;;1.00;;
31676;SDS011;18385;51.572;6.578;2022-08-03T07:34:29;7.50;;;2.15;;
31676;SDS011;18385;51.572;6.578;2022-08-03T07:36:55;5.22;;;1.13;;
31676;SDS011;18385;51.572;6.578;2022-08-03T07:39:22;2.90;;;1.00;;
31676;SDS011;18385;51.572;6.578;2022-08-03T07:41:47;3.30;;;1.17;;
31676;SDS011;18385;51.572;6.578;2022-08-03T07:44:15;5.65;;;1.33;;
31676;SDS011;18385;51.572;6.578;2022-08-03T07:46:42;2.97;;;0.90;;
31676;SDS011;18385;51.572;6.578;2022-08-03T07:49:07;4.22;;;1.10;;
31676;SDS011;18385;51.572;6.578;2022-08-03T07:51:33;1.95;;;0.98;;
31676;SDS011;18385;51.572;6.578;2022-08-03T07:53:59;3.08;;;1.10;;
31676;SDS011;18385;51.572;6.578;2022-08-03T07:56:25;3.38;;;0.60;;
31676;SDS011;18385;51.572;6.578;2022-08-03T07:58:52;4.15;;;1.33;;
31676;SDS011;18385;51.572;6.578;2022-08-03T08:01:18;2.72;;;1.15;;
31676;SDS011;18385;51.572;6.578;2022-08-03T08:03:44;4.72;;;0.90;;
31676;SDS011;18385;51.572;6.578;2022-08-03T08:06:10;4.25;;;1.15;;
31676;SDS011;18385;51.572;6.578;2022-08-03T08:08:39;3.03;;;1.25;;
31676;SDS011;18385;51.572;6.578;2022-08-03T08:13:34;3.75;;;0.90;;
31676;SDS011;18385;51.572;6.578;2022-08-03T08:16:01;6.07;;;1.27;;
31676;SDS011;18385;51.572;6.578;2022-08-03T08:18:27;1.85;;;0.80;;
31676;SDS011;18385;51.572;6.578;2022-08-03T08:20:56;3.55;;;1.10;;
31676;SDS011;18385;51.572;6.578;2022-08-03T08:23:22;2.42;;;0.85;;
31676;SDS011;18385;51.572;6.578;2022-08-03T08:25:51;2.80;;;0.80;;
31676;SDS011;18385;51.572;6.578;2022-08-03T08:28:17;4.20;;;1.30;;
31676;SDS011;18385;51.572;6.578;2022-08-03T08:30:44;3.45;;;0.88;;
31676;SDS011;18385;51.572;6.578;2022-08-03T08:33:10;4.22;;;0.88;;
31676;SDS011;18385;51.572;6.578;2022-08-03T08:35:35;3.47;;;1.05;;
31676;SDS011;18385;51.572;6.578;2022-08-03T08:38:01;2.30;;;1.00;;
31676;SDS011;18385;51.572;6.578;2022-08-03T08:40:27;3.50;;;1.25;;
31676;SDS011;18385;51.572;6.578;2022-08-03T08:42:53;3.35;;;1.08;;
31676;SDS011;18385;51.572;6.578;2022-08-03T08:45:19;5.75;;;1.30;;
31676;SDS011;18385;51.572;6.578;2022-08-03T08:47:46;3.20;;;0.98;;
31676;SDS011;18385;51.572;6.578;2022-08-03T08:50:13;4.10;;;0.93;;
31676;SDS011;18385;51.572;6.578;2022-08-03T08:52:44;4.43;;;0.52;;
31676;SDS011;18385;51.572;6.578;2022-08-03T08:55:12;2.05;;;0.70;;
31676;SDS011;18385;51.572;6.578;2022-08-03T08:57:48;3.10;;;0.75;;
31676;SDS011;18385;51.572;6.578;2022-08-03T09:00:21;1.65;;;0.60;;
31676;SDS011;18385;51.572;6.578;2022-08-03T09:02:47;2.35;;;0.52;;
31676;SDS011;18385;51.572;6.578;2022-08-03T09:05:14;1.90;;;0.90;;
31676;SDS011;18385;51.572;6.578;2022-08-03T09:07:44;2.38;;;0.50;;
31676;SDS011;18385;51.572;6.578;2022-08-03T09:10:11;3.40;;;0.60;;
31676;SDS011;18385;51.572;6.578;2022-08-03T09:12:42;2.22;;;1.00;;
31676;SDS011;18385;51.572;6.578;2022-08-03T09:17:45;4.93;;;1.15;;
31676;SDS011;18385;51.572;6.578;2022-08-03T09:20:11;3.72;;;1.30;;
31676;SDS011;18385;51.572;6.578;2022-08-03T09:25:27;1.70;;;0.80;;
31676;SDS011;18385;51.572;6.578;2022-08-03T09:28:11;2.42;;;0.65;;
31676;SDS011;18385;51.572;6.578;2022-08-03T09:30:39;4.18;;;0.70;;
31676;SDS011;18385;51.572;6.578;2022-08-03T09:33:10;2.70;;;1.10;;
31676;SDS011;18385;51.572;6.578;2022-08-03T09:35:44;4.00;;;0.70;;
31676;SDS011;18385;51.572;6.578;2022-08-03T09:38:23;5.05;;;0.85;;
31676;SDS011;18385;51.572;6.578;2022-08-03T09:40:53;3.63;;;0.90;;
31676;SDS011;18385;51.572;6.578;2022-08-03T09:43:20;2.03;;;0.60;;
31676;SDS011;18385;51.572;6.578;2022-08-03T09:45:46;6.55;;;0.90;;
31676;SDS011;18385;51.572;6.578;2022-08-03T09:50:54;1.40;;;0.70;;
31676;SDS011;18385;51.572;6.578;2022-08-03T09:53:24;3.05;;;0.70;;
31676;SDS011;18385;51.572;6.578;2022-08-03T09:58:16;1.15;;;0.50;;
31676;SDS011;18385;51.572;6.578;2022-08-03T10:00:58;3.35;;;0.60;;
31676;SDS011;18385;51.572;6.578;2022-08-03T10:03:26;5.13;;;0.70;;
31676;SDS011;18385;51.572;6.578;2022-08-03T10:05:53;4.00;;;0.53;;
31676;SDS011;18385;51.572;6.578;2022-08-03T10:08:19;1.42;;;0.43;;
31676;SDS011;18385;51.572;6.578;2022-08-03T10:10:47;4.63;;;0.90;;
31676;SDS011;18385;51.572;6.578;2022-08-03T10:13:15;7.90;;;0.50;;
31676;SDS011;18385;51.572;6.578;2022-08-03T10:15:42;1.27;;;0.60;;
31676;SDS011;18385;51.572;6.578;2022-08-03T10:18:08;3.90;;;0.82;;
31676;SDS011;18385;51.572;6.578;2022-08-03T10:20:36;4.03;;;0.60;;
31676;SDS011;18385;51.572;6.578;2022-08-03T10:23:05;2.17;;;0.60;;
31676;SDS011;18385;51.572;6.578;2022-08-03T10:25:33;2.80;;;0.80;;
31676;SDS011;18385;51.572;6.578;2022-08-03T10:28:02;2.13;;;0.60;;
31676;SDS011;18385;51.572;6.578;2022-08-03T10:30:30;1.85;;;0.60;;
31676;SDS011;18385;51.572;6.578;2022-08-03T10:33:00;3.33;;;0.63;;
31676;SDS011;18385;51.572;6.578;2022-08-03T10:35:29;1.88;;;0.50;;
31676;SDS011;18385;51.572;6.578;2022-08-03T10:38:02;1.77;;;0.55;;
31676;SDS011;18385;51.572;6.578;2022-08-03T10:40:32;4.90;;;0.38;;
31676;SDS011;18385;51.572;6.578;2022-08-03T10:43:02;2.88;;;0.40;;
31676;SDS011;18385;51.572;6.578;2022-08-03T10:45:40;7.03;;;0.60;;
31676;SDS011;18385;51.572;6.578;2022-08-03T10:48:07;2.92;;;0.40;;
31676;SDS011;18385;51.572;6.578;2022-08-03T10:50:33;1.58;;;0.60;;
31676;SDS011;18385;51.572;6.578;2022-08-03T10:53:03;1.70;;;0.60;;
31676;SDS011;18385;51.572;6.578;2022-08-03T10:55:34;1.92;;;0.70;;
31676;SDS011;18385;51.572;6.578;2022-08-03T11:04:18;2.05;;;0.45;;
31676;SDS011;18385;51.572;6.578;2022-08-03T11:06:45;2.47;;;0.98;;
31676;SDS011;18385;51.572;6.578;2022-08-03T11:11:40;5.20;;;0.60;;
31676;SDS011;18385;51.572;6.578;2022-08-03T11:14:09;3.60;;;0.77;;
31676;SDS011;18385;51.572;6.578;2022-08-03T11:16:49;1.43;;;0.50;;
31676;SDS011;18385;51.572;6.578;2022-08-03T11:19:46;3.72;;;0.60;;
31676;SDS011;18385;51.572;6.578;2022-08-03T11:22:14;0.98;;;0.40;;
31676;SDS011;18385;51.572;6.578;2022-08-03T11:27:21;4.70;;;0.55;;
31676;SDS011;18385;51.572;6.578;2022-08-03T11:29:54;2.72;;;0.73;;
31676;SDS011;18385;51.572;6.578;2022-08-03T11:35:16;0.95;;;0.45;;
31676;SDS011;18385;51.572;6.578;2022-08-03T11:40:46;2.25;;;0.70;;
31676;SDS011;18385;51.572;6.578;2022-08-03T11:45:56;5.00;;;0.43;;
31676;SDS011;18385;51.572;6.578;2022-08-03T11:48:22;1.55;;;0.40;;
31676;SDS011;18385;51.572;6.578;2022-08-03T11:51:02;2.10;;;0.22;;
31676;SDS011;18385;51.572;6.578;2022-08-03T11:53:29;1.92;;;0.35;;
31676;SDS011;18385;51.572;6.578;2022-08-03T11:55:57;1.92;;;0.35;;
31676;SDS011;18385;51.572;6.578;2022-08-03T11:58:24;2.88;;;0.40;;
31676;SDS011;18385;51.572;6.578;2022-08-03T12:00:50;1.30;;;0.30;;
31676;SDS011;18385;51.572;6.578;2022-08-03T12:03:17;1.92;;;0.40;;
31676;SDS011;18385;51.572;6.578;2022-08-03T12:05:48;2.20;;;0.40;;
31676;SDS011;18385;51.572;6.578;2022-08-03T12:08:36;4.10;;;0.50;;
31676;SDS011;18385;51.572;6.578;2022-08-03T12:11:02;4.47;;;0.50;;
31676;SDS011;18385;51.572;6.578;2022-08-03T12:13:35;6.45;;;1.65;;
31676;SDS011;18385;51.572;6.578;2022-08-03T12:16:06;3.10;;;0.30;;
31676;SDS011;18385;51.572;6.578;2022-08-03T12:18:32;2.55;;;0.50;;
31676;SDS011;18385;51.572;6.578;2022-08-03T12:21:08;3.97;;;0.40;;
31676;SDS011;18385;51.572;6.578;2022-08-03T12:23:35;1.98;;;0.50;;
31676;SDS011;18385;51.572;6.578;2022-08-03T12:26:03;1.10;;;0.25;;
31676;SDS011;18385;51.572;6.578;2022-08-03T12:28:30;1.33;;;0.30;;
31676;SDS011;18385;51.572;6.578;2022-08-03T12:30:59;0.90;;;0.30;;
31676;SDS011;18385;51.572;6.578;2022-08-03T12:33:26;2.40;;;0.35;;
31676;SDS011;18385;51.572;6.578;2022-08-03T12:36:08;2.00;;;0.30;;
31676;SDS011;18385;51.572;6.578;2022-08-03T12:38:35;2.72;;;0.40;;
31676;SDS011;18385;51.572;6.578;2022-08-03T12:41:06;1.63;;;0.57;;
31676;SDS011;18385;51.572;6.578;2022-08-03T12:43:35;1.80;;;0.40;;
31676;SDS011;18385;51.572;6.578;2022-08-03T12:48:33;2.60;;;0.63;;
31676;SDS011;18385;51.572;6.578;2022-08-03T12:51:11;3.53;;;0.50;;
31676;SDS011;18385;51.572;6.578;2022-08-03T12:53:36;1.23;;;0.45;;
31676;SDS011;18385;51.572;6.578;2022-08-03T12:56:03;2.55;;;0.85;;
31676;SDS011;18385;51.572;6.578;2022-08-03T12:58:33;0.32;;;0.20;;
31676;SDS011;18385;51.572;6.578;2022-08-03T13:01:00;3.13;;;0.20;;
31676;SDS011;18385;51.572;6.578;2022-08-03T13:03:27;4.60;;;0.73;;
31676;SDS011;18385;51.572;6.578;2022-08-03T13:05:53;0.93;;;0.40;;
31676;SDS011;18385;51.572;6.578;2022-08-03T13:08:19;3.75;;;0.45;;
31676;SDS011;18385;51.572;6.578;2022-08-03T13:10:47;1.85;;;0.30;;
31676;SDS011;18385;51.572;6.578;2022-08-03T13:13:13;0.80;;;0.20;;
31676;SDS011;18385;51.572;6.578;2022-08-03T13:15:39;1.17;;;0.50;;
31676;SDS011;18385;51.572;6.578;2022-08-03T13:18:05;0.47;;;0.22;;
31676;SDS011;18385;51.572;6.578;2022-08-03T13:20:31;1.45;;;0.50;;
31676;SDS011;18385;51.572;6.578;2022-08-03T13:22:57;2.85;;;0.50;;
31676;SDS011;18385;51.572;6.578;2022-08-03T13:25:23;1.55;;;0.30;;
31676;SDS011;18385;51.572;6.578;2022-08-03T13:27:49;0.85;;;0.20;;
31676;SDS011;18385;51.572;6.578;2022-08-03T13:30:16;2.20;;;0.45;;
31676;SDS011;18385;51.572;6.578;2022-08-03T13:32:43;2.35;;;0.30;;
31676;SDS011;18385;51.572;6.578;2022-08-03T13:35:09;2.70;;;0.50;;
31676;SDS011;18385;51.572;6.578;2022-08-03T13:37:35;2.00;;;0.43;;
31676;SDS011;18385;51.572;6.578;2022-08-03T13:40:03;1.95;;;0.52;;
31676;SDS011;18385;51.572;6.578;2022-08-03T13:42:31;2.28;;;0.63;;
31676;SDS011;18385;51.572;6.578;2022-08-03T13:44:59;1.77;;;0.52;;
31676;SDS011;18385;51.572;6.578;2022-08-03T13:47:25;4.07;;;0.85;;
31676;SDS011;18385;51.572;6.578;2022-08-03T13:49:52;2.75;;;0.52;;
31676;SDS011;18385;51.572;6.578;2022-08-03T13:52:18;3.58;;;0.30;;
31676;SDS011;18385;51.572;6.578;2022-08-03T13:54:44;1.88;;;0.40;;
31676;SDS011;18385;51.572;6.578;2022-08-03T13:57:10;6.50;;;0.90;;
31676;SDS011;18385;51.572;6.578;2022-08-03T13:59:36;4.13;;;0.70;;
31676;SDS011;18385;51.572;6.578;2022-08-03T14:02:02;1.52;;;0.55;;
31676;SDS011;18385;51.572;6.578;2022-08-03T14:04:28;2.03;;;0.75;;
31676;SDS011;18385;51.572;6.578;2022-08-03T14:06:54;2.58;;;0.60;;
31676;SDS011;18385;51.572;6.578;2022-08-03T14:09:19;2.80;;;0.50;;
31676;SDS011;18385;51.572;6.578;2022-08-03T14:11:45;3.28;;;0.57;;
31676;SDS011;18385;51.572;6.578;2022-08-03T14:14:11;1.70;;;0.50;;
31676;SDS011;18385;51.572;6.578;2022-08-03T14:16:37;6.03;;;0.50;;
31676;SDS011;18385;51.572;6.578;2022-08-03T14:19:03;1.42;;;0.40;;
31676;SDS011;18385;51.572;6.578;2022-08-03T14:21:29;2.20;;;0.55;;
31676;SDS011;18385;51.572;6.578;2022-08-03T14:23:56;3.10;;;0.50;;
31676;SDS011;18385;51.572;6.578;2022-08-03T14:26:22;4.25;;;0.55;;
31676;SDS011;18385;51.572;6.578;2022-08-03T14:28:48;3.80;;;0.70;;
31676;SDS011;18385;51.572;6.578;2022-08-03T14:31:13;2.00;;;0.60;;
31676;SDS011;18385;51.572;6.578;2022-08-03T14:33:39;3.03;;;0.52;;
31676;SDS011;18385;51.572;6.578;2022-08-03T14:36:05;4.75;;;0.70;;
31676;SDS011;18385;51.572;6.578;2022-08-03T14:38:30;2.53;;;1.00;;
31676;SDS011;18385;51.572;6.578;2022-08-03T14:40:56;6.60;;;1.05;;
31676;SDS011;18385;51.572;6.578;2022-08-03T14:43:22;3.30;;;0.63;;
31676;SDS011;18385;51.572;6.578;2022-08-03T14:45:51;2.72;;;0.68;;
31676;SDS011;18385;51.572;6.578;2022-08-03T14:48:18;2.92;;;0.98;;
31676;SDS011;18385;51.572;6.578;2022-08-03T14:50:44;2.65;;;0.80;;
31676;SDS011;18385;51.572;6.578;2022-08-03T14:53:10;6.93;;;0.80;;
31676;SDS011;18385;51.572;6.578;2022-08-03T14:55:36;5.03;;;0.73;;
31676;SDS011;18385;51.572;6.578;2022-08-03T14:58:01;2.35;;;0.73;;
31676;SDS011;18385;51.572;6.578;2022-08-03T15:02:55;2.45;;;0.65;;
31676;SDS011;18385;51.572;6.578;2022-08-03T15:05:21;6.13;;;0.98;;
31676;SDS011;18385;51.572;6.578;2022-08-03T15:07:47;1.90;;;0.60;;
31676;SDS011;18385;51.572;6.578;2022-08-03T15:10:12;1.25;;;0.60;;
31676;SDS011;18385;51.572;6.578;2022-08-03T15:12:38;5.88;;;1.23;;
31676;SDS011;18385;51.572;6.578;2022-08-03T15:15:04;2.83;;;0.70;;
31676;SDS011;18385;51.572;6.578;2022-08-03T15:17:30;3.65;;;0.70;;
31676;SDS011;18385;51.572;6.578;2022-08-03T15:19:56;5.70;;;1.13;;
31676;SDS011;18385;51.572;6.578;2022-08-03T15:22:21;1.83;;;0.80;;
31676;SDS011;18385;51.572;6.578;2022-08-03T15:25:03;4.22;;;0.77;;
31676;SDS011;18385;51.572;6.578;2022-08-03T15:27:29;2.65;;;0.75;;
31676;SDS011;18385;51.572;6.578;2022-08-03T15:29:54;3.75;;;1.00;;
31676;SDS011;18385;51.572;6.578;2022-08-03T15:32:20;2.95;;;1.35;;
31676;SDS011;18385;51.572;6.578;2022-08-03T15:34:46;1.90;;;1.00;;
31676;SDS011;18385;51.572;6.578;2022-08-03T15:37:12;4.68;;;0.88;;
31676;SDS011;18385;51.572;6.578;2022-08-03T15:39:38;5.20;;;1.20;;
31676;SDS011;18385;51.572;6.578;2022-08-03T15:42:03;2.88;;;1.02;;
31676;SDS011;18385;51.572;6.578;2022-08-03T15:44:29;5.60;;;1.00;;
31676;SDS011;18385;51.572;6.578;2022-08-03T15:46:55;5.07;;;1.63;;